EDDM/MUC METAR and TAF weather

Enter ICAO airport designator
Station Type Date Time Source
EDDM METAR 2019/12/06 03:50 UTC NOAA

EDDM 060350Z 23004KT 0800 0400SE R26R/1900N R26L/1900N FZFG SCT001 OVC002 M03/M03 Q1021 NOSIG


Station Type Date Time Source
EDDM Decoded METAR 2019/12/06 03:50 UTC NOAA

Munchen, Germany (EDDM) 48-21N 011-47E
Dec 05, 2019 - 10:50 PM EST / 2019.12.06 0350 UTC
Wind: from the SW (230 degrees) at 5 MPH (4 KT):0
Visibility: less than 1 mile:0
Sky conditions: overcast
Weather: freezing fog
Temperature: 26 F (-3 C)
Windchill: 19 F (-7 C):1
Dew Point: 26 F (-3 C)
Relative Humidity: 100%
Pressure (altimeter): 30.15 in. Hg (1021 hPa)
ob: EDDM 060350Z 23004KT 0800 0400SE R26R/1900N R26L/1900N FZFG SCT001 OVC002 M03/M03 Q1021 NOSIG
cycle: 4

Station Type Date Time Source
EDDM TAF 2019/12/05 18:27 UTC NOAA

TAF EDDM 051700Z 0518/0624 VRB02KT 1200 BCFG OVC002
BECMG 0518/0520 0700 FZFG VV001
TEMPO 0520/0608 0300
BECMG 0609/0612 7000 NSW SCT002
BECMG 0618/0620 24006KT

Example: see airport list